Mililani, Hawaii
Current Conditions -  °F | °C
As of 8:58 AM on Thursday 27 Nov 2014 (Local Time) from PHHI Reporting Station
Scattered Clouds Scattered Clouds  
Wind Chill: 73°   Ceiling: Unl
Heat Index: 73°   Visibility: 10mi
Dew Point: 59°   Wind: 12mph
Humidity: 62%   Direction: 40°NE
Pressure: 30.1"   Gusts: 21mph
Location:  21.45°N, 158.02°W
Report Text: PHHI 271858Z AUTO 04010G18KT 10SM SCT038 23/15 A3010 RMK AO2 SLP185 T02250148 $
Loading
Personal Weather Stations






























Interactive Weather Map New forecast layout! Learn more

10-Day Weather Forecast

Advertisements
Track Severe Weather on mobile